Flight Track Log - Related Links

Times and Time Zones

All times are in EDT time to prevent confusion due to time zone crossing. See the N100WX flight status page for this flight to view local times or setup timezone preferences in your user account.

Time Position Orientation Groundspeed Altitude Reporting Facility
EDT Latitude Longitude Course Direction KTS MPH feet Rate Location/Type
Tue 11:41:09 AM 42.4833 -71.2833 360° North 71 82 1,100  Level KA90
Tue 11:42:21 AM 42.5333 -71.2833 360° North 203 234 3,100 2,091 Climbing KA90
Tue 11:44:27 AM 42.4497 -71.3961 225° Southwest 205 236 8,000 2,258 Climbing Boston Center
Tue 11:45:27 AM 42.4317 -71.4611 249° West 205 236 10,100 2,420 Climbing Boston Center
Tue 11:46:26 AM 42.4197 -71.5431 259° West 206 237 12,800 2,370 Climbing Boston Center
Tue 11:47:26 AM 42.4183 -71.6161 269° West 200 230 14,800 1,317 Climbing Boston Center
Tue 11:48:29 AM 42.4189 -71.7089 270° West 228 262 15,500 950 Climbing Boston Center
Tue 11:49:26 AM 42.4111 -71.8044 264° West 257 296 16,700 1,282 Climbing Boston Center
Tue 11:50:26 AM 42.4011 -71.9086 263° West 274 315 18,000 595 Climbing Boston Center
Tue 11:51:27 AM 42.3933 -72.0128 264° West 280 322 17,900  Descending Boston Center
Tue 11:52:27 AM 42.3853 -72.1169 264° West 285 328 18,000 298 Climbing Boston Center
Tue 11:53:28 AM 42.3772 -72.2153 264° West 272 313 18,500 1,041 Climbing Boston Center
Tue 11:54:28 AM 42.3692 -72.3081 263° West 261 300 20,100 1,513 Climbing Boston Center
Tue 11:55:27 AM 42.3608 -72.4008 263° West 256 295 21,500 1,067 Climbing Boston Center
Tue 11:57:28 AM 42.3419 -72.6031 263° West 268 308 23,300 829 Climbing Boston Center
Tue 11:58:28 AM 42.3314 -72.7125 263° West 288 331 24,000 350 Climbing Boston Center
Tue 11:59:28 AM 42.3228 -72.8164 264° West 288 331 24,000 353 Level Boston Center
Tue 12:00:27 PM 42.3119 -72.9117 261° West 283 326 24,700 1,000 Climbing Boston Center
Tue 12:01:28 PM 42.3011 -72.9958 260° West 273 314 26,000 645 Climbing Boston Center
Tue 12:02:28 PM 42.2942 -73.1025 265° West 276 318 26,000 1,250 Level Boston Center
Tue 12:03:28 PM 42.2875 -73.2006 265° West 276 318 28,500 1,966 Climbing Boston Center
Tue 12:04:27 PM 42.2764 -73.2958 261° West 271 312 29,900 1,513 Climbing Boston Center
Tue 12:05:27 PM 42.2714 -73.3883 266° West 265 305 31,500 1,537 Climbing Boston Center
Tue 12:06:28 PM 42.2622 -73.4753 262° West 244 281 33,000 1,438 Climbing Boston Center
Tue 12:07:28 PM 42.2531 -73.5678 262° West 244 281 34,400 1,424 Climbing Boston Center
Tue 12:08:26 PM 42.2461 -73.6433 263° West 226 260 35,800 1,169 Climbing Boston Center
Tue 12:09:26 PM 42.2347 -73.7244 259° West 226 260 36,700 843 Climbing Boston Center
Tue 12:10:27 PM 42.2275 -73.8028 263° West 226 260 37,500 645 Climbing Boston Center
Tue 12:11:27 PM 42.2203 -73.8839 263° West 226 260 38,000 252 Climbing Boston Center
Tue 12:12:26 PM 42.2108 -73.9706 262° West 226 260 38,000  Level Boston Center
Tue 12:13:27 PM 42.2011 -74.0683 262° West 246 283 38,000  Level Boston Center
Tue 12:14:28 PM 42.1892 -74.1717 261° West 264 304 38,000  Level Boston Center
Tue 12:15:28 PM 42.1769 -74.2781 261° West 287 330 38,000  Level Boston Center
Tue 12:16:28 PM 42.1647 -74.3925 262° West 298 343 38,000  Level Boston Center
Tue 12:17:27 PM 42.1503 -74.5094 261° West 298 343 38,000  Level Boston Center
Tue 12:18:27 PM 42.1397 -74.6211 263° West 298 343 38,000  Level Boston Center
Tue 12:20:39 PM 42.1153 -74.8556 262° West 303 349 38,000  Level New York Center
Tue 12:21:39 PM 42.0967 -74.9772 258° West 303 349 38,000  Level New York Center
Tue 12:22:39 PM 42.0636 -75.0814 247° West 303 349 38,000  Level New York Center
Tue 12:23:39 PM 42.0308 -75.1825 246° West 303 349 38,000  Level New York Center
Tue 12:24:39 PM 41.9958 -75.2861 246° West 308 354 38,000  Level New York Center
Tue 12:25:39 PM 41.9625 -75.3925 247° West 308 354 38,000  Level New York Center
Tue 12:26:39 PM 41.9292 -75.4961 247° West 308 354 38,000  Level New York Center
Tue 12:27:39 PM 41.8939 -75.5994 245° Southwest 308 354 38,000  Level New York Center
Tue 12:28:39 PM 41.8606 -75.7031 247° West 308 354 38,000  Level New York Center
Tue 12:29:39 PM 41.8247 -75.8089 246° West 308 354 38,000  Level New York Center
Tue 12:30:39 PM 41.7911 -75.9147 247° West 308 354 38,000  Level New York Center
Tue 12:31:39 PM 41.7578 -76.0094 245° Southwest 308 354 38,000  Level New York Center
Tue 12:32:39 PM 41.7239 -76.1153 247° West 308 354 38,000  Level New York Center
Tue 12:33:39 PM 41.6900 -76.2208 247° West 308 354 38,000  Level New York Center
Tue 12:34:39 PM 41.6539 -76.3289 246° West 308 354 38,000  Level New York Center
Tue 12:35:39 PM 41.6194 -76.4372 247° West 308 354 38,000  Level New York Center
Tue 12:36:39 PM 41.5831 -76.5450 246° West 313 360 38,000  Level New York Center
Tue 12:37:39 PM 41.5444 -76.6497 244° Southwest 313 360 38,000  Level New York Center
Tue 12:38:39 PM 41.5033 -76.7653 245° Southwest 313 360 38,000  Level New York Center
Tue 12:39:39 PM 41.4692 -76.8647 245° Southwest 319 367 38,000  Level New York Center
Tue 12:40:39 PM 41.4325 -76.9719 246° West 324 373 38,000  Level New York Center
Tue 12:41:39 PM 41.3956 -77.0792 245° Southwest 329 379 38,000  Level New York Center
Tue 12:42:39 PM 41.3583 -77.1892 246° West 334 384 38,000  Level New York Center
Tue 12:44:36 PM 41.2839 -77.4056 245° Southwest 323 372 38,000  Level Cleveland Center
Tue 12:45:38 PM 41.2469 -77.5139 246° West 322 371 38,000  Level Cleveland Center
Tue 12:46:40 PM 41.2081 -77.6222 245° Southwest 326 375 38,000  Level Cleveland Center
Tue 12:47:42 PM 41.1692 -77.7314 245° Southwest 327 376 38,000  Level Cleveland Center
Tue 12:48:45 PM 41.1228 -77.8628 245° Southwest 330 380 38,000  Level Cleveland Center
Tue 12:49:47 PM 41.0850 -77.9714 245° Southwest 327 376 38,000  Level Cleveland Center
Tue 12:50:49 PM 41.0444 -78.0800 244° Southwest 328 377 38,000  Level Cleveland Center
Tue 12:51:51 PM 41.0053 -78.1897 245° Southwest 329 379 38,000  Level Cleveland Center
Tue 12:52:53 PM 40.9644 -78.3092 246° West 338 389 38,000  Level Cleveland Center
Tue 12:53:55 PM 40.9267 -78.4228 246° West 339 390 38,000  Level Cleveland Center
Tue 12:54:57 PM 40.8817 -78.5286 241° Southwest 340 391 38,000  Level Cleveland Center
Tue 12:55:59 PM 40.8339 -78.6597 244° Southwest 338 389 38,000  Level Cleveland Center
Tue 12:57:01 PM 40.7931 -78.7725 244° Southwest 340 391 38,000  Level Cleveland Center
Tue 12:58:03 PM 40.7519 -78.8839 244° Southwest 338 389 38,000  Level Cleveland Center
Tue 12:59:05 PM 40.7106 -78.9992 245° Southwest 339 390 38,000  Level Cleveland Center
Tue 01:00:07 PM 40.6700 -79.1103 244° Southwest 338 389 38,000  Level Cleveland Center
Tue 01:01:09 PM 40.6281 -79.2219 244° Southwest 339 390 38,000  Level Cleveland Center
Tue 01:02:11 PM 40.5781 -79.3569 244° Southwest 342 394 38,000  Level Cleveland Center
Tue 01:03:13 PM 40.5364 -79.4689 244° Southwest 342 394 38,000  Level Cleveland Center
Tue 01:04:15 PM 40.5244 -79.5928 263° West 343 395 38,000  Level Cleveland Center
Tue 01:05:17 PM 40.5203 -79.7189 268° West 347 399 38,000  Level Cleveland Center
Tue 01:06:19 PM 40.5175 -79.8447 268° West 347 399 38,000  Level Cleveland Center
Tue 01:07:21 PM 40.5139 -79.9700 268° West 347 399 38,000  Level Cleveland Center
Tue 01:08:23 PM 40.5103 -80.1167 268° West 347 399 38,000  Level Cleveland Center
Tue 01:09:25 PM 40.5067 -80.2431 268° West 347 399 38,000  Level Cleveland Center
Tue 01:10:27 PM 40.5028 -80.3669 268° West 348 400 38,000  Level Cleveland Center
Tue 01:11:29 PM 40.4989 -80.4925 268° West 348 400 38,000  Level Cleveland Center
Tue 01:12:31 PM 40.4939 -80.6442 268° West 348 400 38,000  Level Cleveland Center
Tue 01:13:33 PM 40.4892 -80.7711 267° West 350 403 38,000  Level Cleveland Center
Tue 01:14:35 PM 40.4847 -80.8978 267° West 349 402 38,000  Level Cleveland Center
Tue 01:15:37 PM 40.4800 -81.0258 267° West 351 404 38,000  Level Cleveland Center
Tue 01:16:39 PM 40.4750 -81.1544 267° West 353 406 38,000  Level Cleveland Center
Tue 01:17:41 PM 40.4697 -81.2825 267° West 353 406 38,000  Level Cleveland Center
Tue 01:18:43 PM 40.4639 -81.4311 267° West 354 407 38,000  Level Cleveland Center
Tue 01:19:45 PM 40.4586 -81.5625 267° West 356 410 38,000  Level Cleveland Center
Tue 01:20:25 PM 40.4553 -81.6506 267° West 357 411 38,000  Level Indianapolis Center
Tue 01:21:27 PM 40.4497 -81.7803 267° West 353 406 38,000  Level Indianapolis Center
Tue 01:22:29 PM 40.4439 -81.9119 267° West 354 407 38,000 -97 Level Indianapolis Center
Tue 01:23:31 PM 40.4378 -82.0411 266° West 352 405 37,800 -484 Descending Indianapolis Center
Tue 01:24:33 PM 40.4328 -82.1661 267° West 343 395 37,000 -878 Descending Indianapolis Center
Tue 01:25:34 PM 40.4194 -82.3031 263° West 324 373 36,000 -780 Descending Indianapolis Center
Tue 01:26:36 PM 40.4081 -82.4197 263° West 319 367 35,400 -871 Descending Indianapolis Center
Tue 01:27:38 PM 40.3956 -82.5400 262° West 330 380 34,200 -1,210 Descending Indianapolis Center
Tue 01:28:40 PM 40.3839 -82.6656 263° West 340 391 32,900 -1,258 Descending Indianapolis Center
Tue 01:29:42 PM 40.3808 -82.7919 268° West 343 395 31,600 -1,210 Descending Indianapolis Center
Tue 01:30:44 PM 40.3753 -82.9086 266° West 343 395 30,400 -774 Descending Indianapolis Center
Tue 01:31:46 PM 40.3681 -83.0586 266° West 345 397 30,000 -194 Descending Indianapolis Center
Tue 01:32:48 PM 40.3628 -83.1789 267° West 338 389 30,000  Level Indianapolis Center
Tue 01:33:50 PM 40.3572 -83.2969 267° West 330 380 30,000  Level Indianapolis Center
Tue 01:34:51 PM 40.3514 -83.4125 266° West 322 371 30,000  Level Indianapolis Center
Tue 01:35:53 PM 40.3461 -83.5269 267° West 319 367 30,000  Level Indianapolis Center
Tue 01:36:55 PM 40.3400 -83.6419 266° West 319 367 30,000  Level Indianapolis Center
Tue 01:37:57 PM 40.3328 -83.7781 266° West 316 364 30,000  Level Indianapolis Center
Tue 01:38:59 PM 40.3269 -83.8922 266° West 316 364 30,000  Level Indianapolis Center
Tue 01:40:01 PM 40.3217 -84.0064 267° West 316 364 30,000  Level Indianapolis Center
Tue 01:41:03 PM 40.3139 -84.1211 265° West 317 365 30,000  Level Indianapolis Center
Tue 01:42:05 PM 40.3089 -84.2350 267° West 317 365 30,000 -532 Level Indianapolis Center
Tue 01:43:07 PM 40.3003 -84.3744 265° West 321 369 28,900 -1,065 Descending Indianapolis Center
Tue 01:44:09 PM 40.2947 -84.4914 266° West 322 371 27,800 -1,113 Descending Indianapolis Center
Tue 01:45:11 PM 40.2867 -84.6083 265° West 324 373 26,600 -871 Descending Indianapolis Center
Tue 01:46:13 PM 40.2794 -84.7233 265° West 320 368 26,000 -878 Descending Indianapolis Center
Tue 01:47:14 PM 40.2728 -84.8392 266° West 322 371 24,800 -1,268 Descending Indianapolis Center
Tue 01:48:16 PM 40.2636 -84.9650 265° West 332 382 23,400 -1,597 Descending Indianapolis Center
Tue 01:49:18 PM 40.2578 -85.0867 266° West 336 387 21,500 -1,790 Descending Indianapolis Center
Tue 01:50:20 PM 40.2486 -85.2042 264° West 328 377 19,700 -1,839 Descending Indianapolis Center
Tue 01:51:22 PM 40.2406 -85.3425 266° West 320 368 17,700 -1,935 Descending Indianapolis Center
Tue 01:52:24 PM 40.2122 -85.4519 251° West 322 371 15,700 -1,790 Descending Indianapolis Center
Tue 01:53:26 PM 40.1697 -85.5486 240° Southwest 309 356 14,000 -1,610 Descending Indianapolis Center
Tue 01:54:27 PM 40.1294 -85.6433 241° Southwest 302 348 12,400 -1,561 Descending Indianapolis Center
Tue 01:55:29 PM 40.0897 -85.7350 240° Southwest 292 336 10,800 -1,548 Descending Indianapolis Center
Tue 01:56:31 PM 40.0517 -85.8247 241° Southwest 286 329 9,200 -1,742 Descending Indianapolis Center
Tue 01:57:33 PM 40.0092 -85.9267 241° Southwest 276 318 7,200 -1,742 Descending Indianapolis Center
Tue 01:58:35 PM 39.9953 -86.0069 257° West 246 283 5,600 -1,512 Descending Indianapolis Center
Tue 01:59:36 PM 39.9886 -86.0861 264° West 231 266 4,100 -1,268 Descending Indianapolis Center
Tue 02:00:38 PM 39.9842 -86.1631 266° West 223 257 3,000 -532 Descending Indianapolis Center
Tue 02:01:40 PM 39.9575 -86.2156 236° Southwest 202 232 3,000 -290 Level Indianapolis Center
Tue 02:02:42 PM 39.9067 -86.2469 205° Southwest 181 208 2,400 -629 Descending Indianapolis Center
Tue 02:03:44 PM 39.8753 -86.2669 206° Southwest 150 173 1,700 -634 Descending Indianapolis Center
Tue 02:04:45 PM 39.8469 -86.2839 205° Southwest 129 148 1,100 -390 Descending Indianapolis Center
Tue 02:05:47 PM 39.8219 -86.2983 204° Southwest 121 139 900 -194 Descending Indianapolis Center
Tue 02:07:00 PM 39.8167 -86.2833 North  Level FlightAware Approximate

Login

Don't have an account? Register now (free) for customized features, flight alerts, and more!